Time;durP1;ratioP1;P1;durP2;ratioP2;P2;SDS_P1;SDS_P2;PMS_P1;PMS_P2;Temp;Humidity;BMP_temperature;BMP_pressure;BME280_temperature;BME280_humidity;BME280_pressure;Samples;Min_cycle;Max_cycle;Signal;HPM_P1;HPM_P2
2023/04/01 00:00:19;;;;;;;0.20;0.20;;;;;;;11.82;75.57;99143.34;5073712;28;20059;-85
2023/04/01 00:02:46;;;;;;;0.22;0.22;;;;;;;11.83;75.78;99150.38;5074154;28;20478;-86
2023/04/01 00:05:13;;;;;;;0.20;0.20;;;;;;;11.81;76.12;99149.59;5073964;28;20052;-85
2023/04/01 00:07:40;;;;;;;0.30;0.30;;;;;;;11.75;75.89;99147.25;5073862;28;20053;-85
2023/04/01 00:10:08;;;;;;;0.10;0.10;;;;;;;11.69;76.34;99153.75;5074735;28;20028;-85
2023/04/01 00:12:35;;;;;;;0.10;0.10;;;;;;;11.76;75.85;99159.59;5075590;28;20069;-85
2023/04/01 00:15:03;;;;;;;0.20;0.20;;;;;;;11.70;76.15;99149.31;5076049;28;20103;-85
2023/04/01 00:17:30;;;;;;;0.63;0.63;;;;;;;11.63;76.97;99152.28;5073194;28;20032;-85
2023/04/01 00:19:57;;;;;;;0.10;0.10;;;;;;;11.65;75.81;99168.09;5078487;28;20098;-85
2023/04/01 00:22:24;;;;;;;0.30;0.30;;;;;;;11.62;76.51;99162.97;5080789;28;20024;-85
2023/04/01 00:24:50;;;;;;;0.20;0.20;;;;;;;11.59;76.57;99164.00;5078945;28;20028;-85
2023/04/01 00:27:17;;;;;;;0.57;0.57;;;;;;;11.60;76.24;99170.13;5077516;28;20071;-85
2023/04/01 00:29:44;;;;;;;0.10;0.10;;;;;;;11.65;75.90;99171.63;5080515;28;20032;-84
2023/04/01 00:32:11;;;;;;;0.90;0.57;;;;;;;11.56;76.63;99174.75;5078979;28;20111;-84
2023/04/01 00:34:37;;;;;;;0.52;0.52;;;;;;;11.55;76.28;99173.03;5071702;28;20067;-85
2023/04/01 00:37:04;;;;;;;1.95;1.13;;;;;;;11.56;75.89;99180.03;5077057;28;20316;-85
2023/04/01 00:39:31;;;;;;;0.98;0.77;;;;;;;11.56;76.09;99177.38;5074543;28;20572;-85
2023/04/01 00:41:57;;;;;;;0.30;0.30;;;;;;;11.48;76.63;99184.91;5074363;28;20057;-85
2023/04/01 00:44:28;;;;;;;0.20;0.20;;;;;;;11.48;76.63;99184.91;5075149;28;20119;-84
2023/04/01 00:46:54;;;;;;;0.10;0.10;;;;;;;11.48;76.52;99182.25;5070759;28;20088;-84
2023/04/01 00:49:29;;;;;;;0.32;0.32;;;;;;;11.54;76.27;99184.59;5075552;28;20495;-85
2023/04/01 00:51:58;;;;;;;0.38;0.38;;;;;;;11.47;76.74;99186.66;5075821;28;20115;-84
2023/04/01 00:54:27;;;;;;;0.70;0.70;;;;;;;11.56;76.09;99185.34;5080393;28;20020;-84
2023/04/01 00:57:01;;;;;;;0.47;0.47;;;;;;;11.52;76.62;99189.09;5077007;28;20078;-84
2023/04/01 00:59:34;;;;;;;0.25;0.25;;;;;;;11.45;76.59;99193.00;5076398;28;20111;-85
2023/04/01 01:02:03;;;;;;;0.45;0.45;;;;;;;11.47;76.19;99204.41;5083957;28;20028;-83
2023/04/01 01:04:32;;;;;;;1.08;0.90;;;;;;;11.48;76.56;99200.81;5083065;28;20062;-83
2023/04/01 01:07:25;;;;;;;0.57;0.57;;;;;;;11.54;76.08;99197.84;5086376;28;20040;-84
2023/04/01 01:12:49;;;;;;;0.83;0.83;;;;;;;11.44;76.67;99196.56;5112439;27;1201173;-79
2023/04/01 01:15:41;;;;;;;0.20;0.20;;;;;;;11.36;76.82;99193.47;5131034;27;20035;-79
2023/04/01 01:21:21;;;;;;;0.10;0.10;;;;;;;11.45;76.78;99200.94;5118231;27;20381;-79
2023/04/01 01:24:27;;;;;;;0.10;0.10;;;;;;;11.41;77.01;99202.03;5096637;28;20066;-81
2023/04/01 01:30:21;;;;;;;0.10;0.10;;;;;;;11.37;76.88;99203.16;5113252;27;20118;-80
2023/04/01 01:35:43;;;;;;;0.20;0.20;;;;;;;11.27;77.27;99210.69;5106498;27;1193550;-81
2023/04/01 01:38:14;;;;;;;0.35;0.35;;;;;;;11.36;77.50;99214.69;5132080;27;20069;-83
2023/04/01 01:40:45;;;;;;;0.77;0.77;;;;;;;11.36;76.72;99212.88;5109165;28;20035;-80
2023/04/01 01:43:15;;;;;;;1.23;0.73;;;;;;;11.33;76.72;99223.66;5121109;28;20064;-80
2023/04/01 01:45:48;;;;;;;0.10;0.10;;;;;;;11.28;77.20;99218.56;5120202;28;20024;-80
2023/04/01 01:48:16;;;;;;;0.10;0.10;;;;;;;11.28;77.29;99218.56;5119350;28;20028;-80
2023/04/01 01:50:44;;;;;;;0.10;0.10;;;;;;;11.37;76.73;99216.41;5120202;28;20034;-82
2023/04/01 01:53:12;;;;;;;3.90;3.60;;;;;;;11.39;76.51;99226.00;5113346;28;20035;-80
2023/04/01 01:55:41;;;;;;;0.10;0.10;;;;;;;11.40;76.55;99226.84;5115613;28;20114;-80
2023/04/01 02:01:01;;;;;;;0.20;0.20;;;;;;;11.38;76.61;99224.28;5111500;27;20411;-83
2023/04/01 02:03:31;;;;;;;0.10;0.10;;;;;;;11.30;76.46;99227.31;5096657;28;20040;-80
2023/04/01 02:06:00;;;;;;;0.10;0.10;;;;;;;11.35;76.93;99228.88;5098994;28;20035;-81
2023/04/01 02:08:33;;;;;;;0.10;0.10;;;;;;;11.38;76.61;99229.56;5091624;28;20040;-82
2023/04/01 02:11:04;;;;;;;0.10;0.10;;;;;;;11.33;76.61;99237.75;5077802;28;20027;-83
2023/04/01 02:13:53;;;;;;;0.10;0.10;;;;;;;11.39;76.91;99246.34;5077698;28;20095;-83
2023/04/01 02:16:25;;;;;;;0.70;0.70;;;;;;;11.38;76.23;99248.13;5085834;28;20032;-83
2023/04/01 02:18:55;;;;;;;1.65;1.55;;;;;;;11.33;76.96;99255.47;5080674;28;20067;-83
2023/04/01 02:21:24;;;;;;;0.10;0.10;;;;;;;11.38;76.64;99255.25;5081203;28;20560;-82
2023/04/01 02:23:53;;;;;;;0.10;0.10;;;;;;;11.28;76.73;99253.03;5084743;28;20119;-81
2023/04/01 02:26:20;;;;;;;0.88;0.88;;;;;;;11.32;77.01;99254.59;5083716;28;20027;-81
2023/04/01 02:28:50;;;;;;;0.00;0.00;;;;;;;11.29;77.08;99262.69;5078905;28;20517;-83
2023/04/01 02:31:17;;;;;;;0.10;0.10;;;;;;;11.25;77.17;99260.28;5082735;28;20029;-82
2023/04/01 02:33:43;;;;;;;0.10;0.10;;;;;;;11.37;76.95;99264.13;5087105;28;20017;-80
2023/04/01 02:36:13;;;;;;;0.17;0.17;;;;;;;11.35;76.78;99271.28;5075554;28;20051;-80
2023/04/01 02:38:42;;;;;;;0.13;0.13;;;;;;;11.31;77.15;99266.16;5089823;28;20398;-82
2023/04/01 02:41:08;;;;;;;0.20;0.20;;;;;;;11.29;76.90;99265.34;5072708;28;20033;-81
2023/04/01 02:43:34;;;;;;;0.10;0.10;;;;;;;11.28;77.69;99271.59;5085002;28;20035;-80
2023/04/01 02:46:01;;;;;;;0.75;0.75;;;;;;;11.34;77.30;99270.44;5081114;28;20037;-82
2023/04/01 02:48:27;;;;;;;0.10;0.10;;;;;;;11.31;77.49;99271.47;5081652;28;20028;-80
2023/04/01 02:50:54;;;;;;;0.43;0.43;;;;;;;11.20;78.00;99279.03;5079382;28;20028;-81
2023/04/01 02:53:20;;;;;;;0.10;0.10;;;;;;;11.30;77.19;99279.47;5080081;28;20044;-81
2023/04/01 02:55:49;;;;;;;0.10;0.10;;;;;;;11.36;76.73;99276.50;5073114;28;20033;-81
2023/04/01 02:58:16;;;;;;;0.10;0.10;;;;;;;11.41;76.67;99278.94;5079410;28;20033;-80
2023/04/01 03:00:42;;;;;;;0.20;0.20;;;;;;;11.42;76.59;99285.97;5074533;28;20059;-79
2023/04/01 03:03:09;;;;;;;1.52;1.02;;;;;;;11.45;76.97;99293.78;5079737;28;20036;-81
2023/04/01 03:05:35;;;;;;;0.17;0.17;;;;;;;11.47;76.96;99294.56;5071848;28;20024;-83
2023/04/01 03:08:02;;;;;;;0.10;0.10;;;;;;;11.51;76.75;99298.78;5074400;28;20035;-81
2023/04/01 03:10:28;;;;;;;0.30;0.30;;;;;;;11.53;76.75;99299.56;5073360;28;20046;-81
2023/04/01 03:12:54;;;;;;;0.25;0.25;;;;;;;11.57;76.61;99303.78;5065873;28;20033;-79
2023/04/01 03:15:20;;;;;;;0.75;0.75;;;;;;;11.55;76.91;99310.09;5061307;28;20044;-81
2023/04/01 03:17:46;;;;;;;0.10;0.10;;;;;;;11.58;76.72;99310.81;5067336;28;20401;-79
2023/04/01 03:20:13;;;;;;;0.10;0.10;;;;;;;11.60;76.97;99313.38;5067863;28;20381;-82
2023/04/01 03:22:39;;;;;;;0.55;0.55;;;;;;;11.57;77.23;99325.00;5065999;28;20096;-82
2023/04/01 03:25:07;;;;;;;0.10;0.10;;;;;;;11.52;77.20;99315.56;5063222;28;20135;-81
2023/04/01 03:27:35;;;;;;;1.95;1.30;;;;;;;11.58;77.55;99326.72;5067379;28;21388;-82
2023/04/01 03:30:02;;;;;;;0.10;0.10;;;;;;;11.53;77.26;99331.41;5065810;28;20088;-81
2023/04/01 03:32:29;;;;;;;0.17;0.17;;;;;;;11.56;77.86;99339.19;5071419;28;20135;-82
2023/04/01 03:34:55;;;;;;;0.10;0.10;;;;;;;11.70;76.83;99335.03;5065433;28;20037;-81
2023/04/01 03:37:22;;;;;;;0.10;0.10;;;;;;;11.66;77.20;99352.88;5067877;28;20088;-81
2023/04/01 03:39:48;;;;;;;6.50;2.60;;;;;;;11.66;77.66;99350.22;5071085;28;20033;-81
2023/04/01 03:42:15;;;;;;;0.20;0.20;;;;;;;11.69;77.00;99346.56;5066140;28;20059;-79
2023/04/01 03:44:41;;;;;;;0.50;0.50;;;;;;;11.73;77.20;99353.47;5073675;28;20033;-80
2023/04/01 03:47:08;;;;;;;1.27;0.65;;;;;;;11.72;77.00;99360.53;5075172;28;20044;-79
2023/04/01 03:49:35;;;;;;;0.25;0.25;;;;;;;11.72;76.96;99357.03;5073830;28;20068;-79
2023/04/01 03:52:01;;;;;;;0.70;0.70;;;;;;;11.77;76.91;99358.50;5078609;28;20039;-80
2023/04/01 03:54:27;;;;;;;0.40;0.40;;;;;;;11.80;77.24;99376.09;5071850;28;20043;-79
2023/04/01 03:56:54;;;;;;;0.95;0.95;;;;;;;11.82;77.07;99372.44;5076035;28;20045;-79
2023/04/01 03:59:21;;;;;;;0.13;0.13;;;;;;;11.81;77.28;99373.38;5071211;28;20051;-78
2023/04/01 04:01:47;;;;;;;0.20;0.20;;;;;;;11.82;76.45;99380.41;5067271;28;20158;-81
2023/04/01 04:04:14;;;;;;;0.10;0.10;;;;;;;11.75;77.22;99381.63;5067858;28;20041;-79
2023/04/01 04:06:40;;;;;;;0.73;0.73;;;;;;;11.84;76.68;99388.28;5069209;28;20021;-82
2023/04/01 04:09:06;;;;;;;0.10;0.10;;;;;;;11.72;77.58;99388.88;5066306;28;20040;-81
2023/04/01 04:11:32;;;;;;;0.10;0.10;;;;;;;11.76;77.58;99393.97;5069567;28;20052;-79
2023/04/01 04:13:59;;;;;;;0.20;0.20;;;;;;;11.77;77.53;99408.09;5070189;28;20028;-78
2023/04/01 04:16:25;;;;;;;0.20;0.20;;;;;;;11.82;76.83;99403.41;5061794;28;20071;-81
2023/04/01 04:18:51;;;;;;;0.20;0.20;;;;;;;11.81;77.21;99412.31;5068183;28;20049;-81
2023/04/01 04:21:17;;;;;;;0.57;0.47;;;;;;;11.86;77.34;99418.25;5066199;28;20052;-81
2023/04/01 04:23:44;;;;;;;1.67;1.58;;;;;;;11.85;77.25;99419.22;5063073;28;20043;-80
2023/04/01 04:26:12;;;;;;;0.17;0.17;;;;;;;11.82;76.98;99420.22;5074641;28;20095;-81
2023/04/01 04:28:39;;;;;;;0.43;0.38;;;;;;;11.86;76.87;99423.56;5066394;28;20248;-82
2023/04/01 04:31:06;;;;;;;0.20;0.20;;;;;;;11.83;76.90;99429.03;5068216;28;20043;-80
2023/04/01 04:33:33;;;;;;;0.28;0.28;;;;;;;11.87;77.11;99435.03;5071164;28;20110;-84
2023/04/01 04:36:00;;;;;;;0.50;0.50;;;;;;;11.84;77.21;99438.72;5057179;28;20036;-81
2023/04/01 04:38:27;;;;;;;0.70;0.70;;;;;;;11.80;77.28;99442.41;5055508;28;20066;-80
2023/04/01 04:40:53;;;;;;;0.10;0.10;;;;;;;11.84;76.77;99449.31;5056254;28;20111;-81
2023/04/01 04:43:19;;;;;;;0.15;0.15;;;;;;;11.82;76.85;99451.19;5054597;28;20033;-81
2023/04/01 04:45:46;;;;;;;0.65;0.65;;;;;;;11.82;76.83;99456.50;5052852;28;20066;-81
2023/04/01 04:48:18;;;;;;;0.10;0.10;;;;;;;11.82;76.44;99470.63;5056133;28;20024;-83
2023/04/01 04:50:45;;;;;;;0.20;0.20;;;;;;;11.87;76.70;99466.91;5055080;28;20025;-81
2023/04/01 04:53:12;;;;;;;4.03;1.52;;;;;;;11.84;76.58;99462.59;5052753;28;20521;-81
2023/04/01 04:55:42;;;;;;;0.17;0.17;;;;;;;11.82;76.78;99470.63;5048650;28;20116;-82
2023/04/01 04:58:08;;;;;;;0.40;0.40;;;;;;;11.78;76.33;99479.66;5047951;28;20024;-81
2023/04/01 05:00:35;;;;;;;0.40;0.40;;;;;;;11.67;76.78;99479.31;5049425;28;20367;-81
2023/04/01 05:03:01;;;;;;;0.30;0.30;;;;;;;11.73;76.78;99488.78;5053463;28;20093;-81
2023/04/01 05:05:30;;;;;;;7.78;0.85;;;;;;;11.80;76.46;99490.19;5052632;28;20032;-82
2023/04/01 05:07:56;;;;;;;0.20;0.20;;;;;;;11.79;76.67;99484.03;5048914;28;20567;-82
2023/04/01 05:10:22;;;;;;;0.20;0.20;;;;;;;11.78;76.21;99494.72;5047887;28;20021;-82
2023/04/01 05:12:48;;;;;;;0.10;0.10;;;;;;;11.76;76.12;99499.22;5057736;28;20059;-82
2023/04/01 05:15:14;;;;;;;0.10;0.10;;;;;;;11.71;76.31;99506.56;5057634;28;20509;-83
2023/04/01 05:17:41;;;;;;;1.00;1.00;;;;;;;11.69;76.76;99505.75;5055421;28;20033;-82
2023/04/01 05:20:07;;;;;;;1.65;0.95;;;;;;;11.67;76.23;99518.25;5067881;28;20203;-82
2023/04/01 05:22:34;;;;;;;0.05;0.05;;;;;;;11.70;76.60;99526.06;5057925;28;20037;-87
2023/04/01 05:25:00;;;;;;;1.23;1.15;;;;;;;11.73;76.31;99520.63;5051865;28;20363;-82
2023/04/01 05:27:26;;;;;;;0.40;0.38;;;;;;;11.70;76.51;99541.97;5052175;28;20036;-81
2023/04/01 05:29:52;;;;;;;0.22;0.22;;;;;;;11.67;76.43;99536.81;5055536;28;20028;-82
2023/04/01 05:32:18;;;;;;;0.63;0.63;;;;;;;11.65;75.94;99544.81;5055494;28;20030;-82
2023/04/01 05:34:44;;;;;;;0.13;0.13;;;;;;;11.76;75.89;99542.56;5057799;28;20101;-82
2023/04/01 05:37:10;;;;;;;0.32;0.32;;;;;;;11.57;76.53;99550.47;5055546;28;20041;-82
2023/04/01 05:39:38;;;;;;;0.10;0.10;;;;;;;11.68;75.87;99547.34;5051994;28;20443;-82
2023/04/01 05:42:07;;;;;;;0.10;0.10;;;;;;;11.71;76.45;99546.34;5054256;28;20056;-81
2023/04/01 05:44:34;;;;;;;0.20;0.20;;;;;;;11.72;75.90;99561.34;5050179;28;20127;-82
2023/04/01 05:47:00;;;;;;;0.10;0.10;;;;;;;11.67;75.93;99563.34;5055539;28;20044;-82
2023/04/01 05:49:26;;;;;;;0.10;0.10;;;;;;;11.71;76.69;99564.94;5053539;28;20039;-81
2023/04/01 05:51:52;;;;;;;0.10;0.10;;;;;;;11.60;76.43;99576.88;5052200;28;20108;-82
2023/04/01 05:54:19;;;;;;;2.50;1.20;;;;;;;11.68;76.03;99579.19;5056241;28;20498;-83
2023/04/01 05:56:48;;;;;;;0.70;0.68;;;;;;;11.62;76.25;99577.66;5058251;28;20068;-81
2023/04/01 05:59:15;;;;;;;0.10;0.10;;;;;;;11.62;76.33;99577.66;5059076;28;20029;-82
2023/04/01 06:01:41;;;;;;;4.70;1.38;;;;;;;11.65;76.22;99585.50;5056075;28;20033;-81
2023/04/01 06:04:14;;;;;;;0.10;0.10;;;;;;;11.60;76.46;99584.84;5056168;28;20043;-82
2023/04/01 06:06:40;;;;;;;;;;;;;;;11.71;75.53;99591.47;5059452;28;20033;-82
2023/04/01 06:09:28;;;;;;;0.10;0.10;;;;;;;11.70;76.44;99595.03;5053797;28;19949;-81
2023/04/01 06:15:01;;;;;;;0.30;0.30;;;;;;;11.67;76.45;99606.66;5100177;27;20415;-80
2023/04/01 06:26:02;;;;;;;4.90;2.22;;;;;;;11.70;76.25;99632.19;5086091;27;1883242;-81
2023/04/01 06:28:45;;;;;;;1.60;1.58;;;;;;;11.67;76.43;99622.56;5116885;28;20020;-81
2023/04/01 06:40:06;;;;;;;0.20;0.20;;;;;;;11.69;75.96;99643.72;5081448;27;20352;-82
2023/04/01 06:51:35;;;;;;;0.73;0.73;;;;;;;11.57;76.70;99653.94;5105382;27;1221401;-82
2023/04/01 06:54:25;;;;;;;0.40;0.40;;;;;;;11.65;75.97;99659.78;5116721;27;20035;-82
2023/04/01 06:56:59;;;;;;;0.30;0.30;;;;;;;11.63;76.26;99668.75;5128164;27;20024;-82
2023/04/01 06:59:28;;;;;;;0.57;0.57;;;;;;;11.63;76.64;99666.94;5121230;27;20031;-82
2023/04/01 07:02:01;;;;;;;0.15;0.15;;;;;;;11.58;76.56;99676.91;5131385;27;20027;-82
2023/04/01 07:04:31;;;;;;;;;;;;;;;11.73;76.08;99682.47;5131455;27;20050;-82
2023/04/01 07:07:03;;;;;;;0.55;0.55;;;;;;;11.54;76.84;99682.38;5129652;27;19930;-82
2023/04/01 07:09:36;;;;;;;1.75;1.48;;;;;;;11.51;76.93;99685.19;5128595;27;20023;-82
2023/04/01 07:12:26;;;;;;;0.38;0.38;;;;;;;11.56;76.61;99678.75;5127168;27;20027;-82
2023/04/01 07:14:56;;;;;;;0.38;0.38;;;;;;;11.59;76.59;99705.16;5129620;27;20028;-82
2023/04/01 07:17:33;;;;;;;0.10;0.10;;;;;;;11.51;76.39;99701.94;5126602;27;20435;-84
2023/04/01 07:20:10;;;;;;;2.42;2.22;;;;;;;11.47;76.49;99705.66;5123038;27;20023;-83
2023/04/01 07:22:44;;;;;;;0.47;0.47;;;;;;;11.49;76.88;99709.13;5127368;27;20050;-83
2023/04/01 07:25:22;;;;;;;0.70;0.70;;;;;;;11.59;76.39;99710.47;5124702;27;20032;-83
2023/04/01 07:27:50;;;;;;;0.45;0.45;;;;;;;11.55;76.77;99708.88;5121233;27;20031;-83
2023/04/01 07:30:19;;;;;;;0.10;0.10;;;;;;;11.55;76.80;99708.88;5130013;27;20027;-83
2023/04/01 07:33:09;;;;;;;0.20;0.20;;;;;;;11.58;76.22;99726.44;5123490;27;20023;-83
2023/04/01 07:35:52;;;;;;;0.20;0.20;;;;;;;11.70;76.64;99722.41;5124915;27;20156;-83
2023/04/01 07:38:46;;;;;;;0.30;0.30;;;;;;;11.76;76.13;99727.44;5121883;27;20409;-83
2023/04/01 07:41:41;;;;;;;0.20;0.20;;;;;;;11.77;75.85;99734.47;5131058;27;20016;-82
2023/04/01 07:47:34;;;;;;;0.87;0.80;;;;;;;11.80;76.39;99734.34;5086038;27;1183755;-83
2023/04/01 07:53:10;;;;;;;0.65;0.57;;;;;;;11.92;76.29;99743.56;5076484;28;20745;-83
2023/04/01 07:55:47;;;;;;;0.10;0.10;;;;;;;11.98;76.30;99740.69;5049263;28;20053;-83
2023/04/01 08:12:41;;;;;;;2.13;2.03;;;;;;;11.92;76.45;99764.81;5103634;27;1182662;-81
2023/04/01 08:20:49;;;;;;;0.15;0.15;;;;;;;11.96;75.44;99777.03;5102030;27;20955;-82
2023/04/01 08:23:22;;;;;;;13.77;1.20;;;;;;;12.06;75.54;99782.81;5098606;28;20028;-82
2023/04/01 08:28:41;;;;;;;0.10;0.10;;;;;;;12.14;75.01;99801.97;5083090;27;1174541;-82
2023/04/01 08:31:23;;;;;;;0.45;0.45;;;;;;;12.14;75.54;99804.59;5104573;28;20034;-82
2023/04/01 08:33:52;;;;;;;0.35;0.35;;;;;;;12.05;75.34;99794.38;5104133;28;20435;-82
2023/04/01 08:36:27;;;;;;;0.20;0.20;;;;;;;12.13;75.30;99800.22;5107213;28;20103;-82
2023/04/01 08:39:15;;;;;;;0.10;0.10;;;;;;;12.09;75.19;99803.94;5104710;28;20024;-82
2023/04/01 08:53:33;;;;;;;0.10;0.10;;;;;;;12.11;74.89;99824.19;5104797;27;20385;-80
2023/04/01 09:07:33;;;;;;;0.55;0.55;;;;;;;12.24;74.98;99844.91;5119550;27;20345;-83
2023/04/01 09:13:18;;;;;;;4.20;1.05;;;;;;;12.45;74.86;99838.66;5086684;27;20418;-81
2023/04/01 09:21:59;;;;;;;0.20;0.20;;;;;;;12.19;75.41;99855.72;5078388;28;20139;-82
2023/04/01 09:25:05;;;;;;;0.17;0.17;;;;;;;12.22;74.82;99868.84;5071960;28;20055;-80
2023/04/01 09:30:48;;;;;;;1.25;1.17;;;;;;;12.18;75.57;99869.94;5104021;27;20411;-76
2023/04/01 09:33:51;;;;;;;0.68;0.68;;;;;;;12.30;75.37;99864.09;5084471;28;20063;-78
2023/04/01 09:39:41;;;;;;;0.20;0.20;;;;;;;12.32;74.88;99873.78;5078464;27;1263654;-79
2023/04/01 09:42:43;;;;;;;0.10;0.10;;;;;;;12.29;74.95;99878.31;5096892;28;20032;-80
2023/04/01 09:45:23;;;;;;;0.10;0.10;;;;;;;12.20;75.38;99886.66;5109183;28;20434;-79
2023/04/01 09:50:46;;;;;;;0.40;0.40;;;;;;;12.19;75.08;99895.56;5080203;28;20044;-79
2023/04/01 09:56:45;;;;;;;1.55;1.50;;;;;;;12.28;75.67;99889.84;5094708;27;20389;-77
2023/04/01 09:59:51;;;;;;;0.10;0.10;;;;;;;12.32;75.51;99890.59;5088089;28;20059;-80
2023/04/01 10:02:57;;;;;;;0.10;0.10;;;;;;;12.33;75.13;99902.94;5090835;28;20028;-80
2023/04/01 10:08:24;;;;;;;0.13;0.13;;;;;;;12.36;75.06;99902.81;5006723;27;20138;-79
2023/04/01 10:17:19;;;;;;;0.10;0.10;;;;;;;12.38;75.21;99916.88;5110801;27;20343;-79
2023/04/01 10:25:34;;;;;;;0.67;0.67;;;;;;;12.40;75.39;99919.47;5141461;27;1196704;-81
2023/04/01 10:28:28;;;;;;;0.10;0.10;;;;;;;12.44;75.20;99929.06;5153749;27;20028;-78
2023/04/01 10:48:05;;;;;;;0.20;0.20;;;;;;;12.49;74.97;99944.81;5104459;27;1369064;-79
2023/04/01 10:53:39;;;;;;;0.20;0.20;;;;;;;12.16;75.93;99948.78;5121023;27;1185660;-82
2023/04/01 11:08:23;;;;;;;0.32;0.32;;;;;;;12.15;75.23;99957.69;5107335;27;1243854;-78
2023/04/01 11:11:23;;;;;;;0.30;0.30;;;;;;;12.20;75.79;99961.03;5121121;28;20106;-81
2023/04/01 11:20:01;;;;;;;0.20;0.20;;;;;;;12.39;74.99;99966.44;5074859;28;20402;-81
2023/04/01 11:23:01;;;;;;;0.30;0.30;;;;;;;12.35;75.88;99975.47;5058593;28;20044;-80
2023/04/01 11:25:49;;;;;;;0.10;0.10;;;;;;;12.33;75.96;99966.69;5062964;28;20132;-78
2023/04/01 11:32:05;;;;;;;0.17;0.17;;;;;;;12.54;75.33;99972.91;5174963;27;20696;-81
2023/04/01 11:35:11;;;;;;;0.10;0.10;;;;;;;12.64;75.31;99983.16;5155215;27;20070;-80
2023/04/01 11:38:07;;;;;;;0.47;0.47;;;;;;;12.60;75.20;99980.63;5155646;27;20038;-81
2023/04/01 11:40:59;;;;;;;1.15;0.57;;;;;;;12.57;75.06;99987.84;5147528;27;20027;-79
2023/04/01 11:43:37;;;;;;;0.30;0.30;;;;;;;12.51;75.09;99990.75;5156850;27;20031;-80
2023/04/01 11:46:43;;;;;;;0.10;0.10;;;;;;;12.59;74.94;99994.81;5153017;27;20626;-81
2023/04/01 11:52:48;;;;;;;0.20;0.20;;;;;;;12.69;75.33;99997.09;5085290;27;20405;-79
2023/04/01 11:59:31;;;;;;;2.97;1.65;;;;;;;12.84;75.07;100015.06;5072520;27;1539546;-79
2023/04/01 12:02:19;;;;;;;0.10;0.10;;;;;;;12.85;75.18;100018.59;5107996;28;20059;-78
2023/04/01 12:05:12;;;;;;;0.17;0.17;;;;;;;12.83;75.26;100029.25;5107409;28;20031;-79
2023/04/01 12:07:53;;;;;;;0.10;0.10;;;;;;;12.99;74.90;100018.84;5106992;28;20095;-81
2023/04/01 12:10:27;;;;;;;0.20;0.20;;;;;;;12.97;75.23;100025.16;5100664;28;20028;-82
2023/04/01 12:13:33;;;;;;;1.25;0.85;;;;;;;13.13;74.62;100031.53;5107897;28;20039;-81
2023/04/01 12:19:14;;;;;;;0.20;0.20;;;;;;;12.98;74.49;100037.53;5080760;27;1233540;-80
2023/04/01 12:22:20;;;;;;;0.30;0.30;;;;;;;13.03;74.48;100035.53;5091602;28;20029;-79
2023/04/01 12:28:25;;;;;;;0.17;0.17;;;;;;;13.16;74.60;100051.81;5104900;27;20129;-81
2023/04/01 12:31:01;;;;;;;0.20;0.20;;;;;;;13.16;74.47;100047.38;5081657;28;20452;-80
2023/04/01 12:34:07;;;;;;;0.17;0.17;;;;;;;13.25;74.28;100056.75;5080143;28;20036;-81
2023/04/01 12:37:08;;;;;;;0.65;0.65;;;;;;;13.40;74.57;100058.75;5077996;28;20059;-81
2023/04/01 12:45:29;;;;;;;0.20;0.20;;;;;;;13.66;74.16;100063.88;4784807;27;10205549;-85
2023/04/01 12:56:38;;;;;;;2.38;1.65;;;;;;;13.50;73.72;100075.19;5126544;27;20396;-80
2023/04/01 12:59:33;;;;;;;0.35;0.35;;;;;;;13.37;73.87;100073.94;5075527;28;20107;-82
2023/04/01 13:05:17;;;;;;;0.25;0.25;;;;;;;13.22;73.96;100079.03;5113996;27;20124;-81
2023/04/01 13:21:43;;;;;;;0.40;0.40;;;;;;;13.03;74.57;100110.84;5094512;27;20492;-81
2023/04/01 13:24:38;;;;;;;0.40;0.40;;;;;;;12.99;74.73;100111.06;5060598;28;20943;-82
2023/04/01 13:30:22;;;;;;;1.48;1.48;;;;;;;12.95;74.99;100112.97;5110498;27;20139;-84
2023/04/01 13:33:04;;;;;;;0.20;0.20;;;;;;;13.00;75.28;100118.13;5094290;28;20111;-85
2023/04/01 13:35:43;;;;;;;0.30;0.30;;;;;;;13.04;75.04;100119.69;5094686;28;20046;-84
2023/04/01 13:41:49;;;;;;;0.25;0.25;;;;;;;13.12;75.09;100128.22;5077392;27;2042871;-79
2023/04/01 13:44:44;;;;;;;2.75;2.55;;;;;;;13.10;74.87;100132.75;5124869;28;20153;-81
2023/04/01 13:50:36;;;;;;;1.10;1.10;;;;;;;13.01;75.10;100130.44;5035125;27;3020351;-79
2023/04/01 13:53:32;;;;;;;0.20;0.20;;;;;;;12.98;75.35;100143.91;5103923;28;20075;-80
2023/04/01 13:56:27;;;;;;;0.10;0.10;;;;;;;12.98;75.50;100133.25;5097881;28;20060;-82
2023/04/01 13:59:07;;;;;;;0.20;0.20;;;;;;;12.91;75.74;100137.94;5106314;28;20028;-84
2023/04/01 14:02:02;;;;;;;0.20;0.20;;;;;;;13.00;75.79;100139.38;5097917;28;20073;-80
2023/04/01 14:04:56;;;;;;;0.10;0.10;;;;;;;13.05;75.70;100140.91;5105715;28;20032;-82
2023/04/01 14:07:50;;;;;;;0.22;0.22;;;;;;;13.14;75.38;100144.97;5099561;28;20059;-81
2023/04/01 14:10:30;;;;;;;0.10;0.10;;;;;;;13.01;75.69;100155.28;5098812;28;20032;-82
2023/04/01 14:13:07;;;;;;;0.45;0.45;;;;;;;13.02;76.00;100156.13;5102180;28;20047;-85
2023/04/01 14:15:48;;;;;;;0.20;0.20;;;;;;;13.13;75.90;100164.53;5113024;28;20035;-82
2023/04/01 14:18:26;;;;;;;0.28;0.28;;;;;;;13.09;75.68;100170.91;5105420;28;20485;-82
2023/04/01 14:21:14;;;;;;;0.30;0.30;;;;;;;13.08;75.81;100166.50;5105101;28;20028;-80
2023/04/01 14:26:44;;;;;;;0.20;0.20;;;;;;;13.01;75.98;100178.31;5136451;27;20371;-78
2023/04/01 14:32:12;;;;;;;0.25;0.25;;;;;;;13.05;75.93;100187.94;5100979;27;20427;-79
2023/04/01 14:34:55;;;;;;;0.10;0.10;;;;;;;13.04;76.04;100191.50;5104053;28;20039;-80
2023/04/01 14:37:42;;;;;;;0.15;0.15;;;;;;;13.10;76.06;100196.56;5090795;28;20036;-80
2023/04/01 14:43:32;;;;;;;0.43;0.43;;;;;;;13.21;76.00;100202.31;5106367;27;20461;-82
2023/04/01 14:48:51;;;;;;;0.10;0.10;;;;;;;13.31;75.69;100205.47;5109253;27;20360;-78
2023/04/01 14:51:28;;;;;;;0.10;0.10;;;;;;;13.27;76.05;100207.38;5089294;28;20044;-80
2023/04/01 14:54:22;;;;;;;0.10;0.10;;;;;;;13.32;76.13;100219.63;5095788;28;20027;-79
2023/04/01 14:57:01;;;;;;;0.10;0.10;;;;;;;13.27;75.89;100226.00;5085794;28;20394;-79
2023/04/01 14:59:30;;;;;;;0.17;0.17;;;;;;;13.27;75.90;100231.31;5096184;28;20032;-80
2023/04/01 15:07:52;;;;;;;0.10;0.10;;;;;;;13.27;75.74;100239.31;5091555;27;20430;-79
2023/04/01 15:10:50;;;;;;;0.10;0.10;;;;;;;13.26;76.25;100245.56;5075852;28;20060;-79
2023/04/01 15:16:31;;;;;;;0.10;0.10;;;;;;;13.30;75.77;100261.41;5072275;27;20414;-79
2023/04/01 15:19:12;;;;;;;0.10;0.10;;;;;;;13.24;75.92;100266.03;5055583;27;20148;-79
2023/04/01 15:27:16;;;;;;;0.25;0.25;;;;;;;13.10;75.90;100281.69;5087199;27;1895666;-79
2023/04/01 15:30:12;;;;;;;0.20;0.20;;;;;;;13.10;75.92;100277.22;5117369;28;20031;-81
2023/04/01 15:32:52;;;;;;;0.20;0.20;;;;;;;13.10;75.70;100290.53;5109459;28;20036;-80
2023/04/01 15:35:40;;;;;;;0.10;0.10;;;;;;;13.00;75.84;100285.66;5114091;28;20020;-81
2023/04/01 15:43:51;;;;;;;0.20;0.20;;;;;;;12.79;76.00;100315.63;5071301;28;20476;-81
2023/04/01 15:46:41;;;;;;;0.20;0.20;;;;;;;12.85;76.01;100322.53;5057407;28;20552;-80
2023/04/01 15:55:37;;;;;;;0.10;0.10;;;;;;;12.80;76.13;100329.81;5098824;27;20384;-81
2023/04/01 16:04:13;;;;;;;0.20;0.20;;;;;;;12.70;76.33;100344.38;5102867;27;20403;-79
2023/04/01 16:07:03;;;;;;;0.10;0.10;;;;;;;12.69;76.04;100351.47;5090535;28;20100;-81
2023/04/01 16:09:47;;;;;;;0.10;0.10;;;;;;;12.68;76.51;100351.53;5084827;28;20024;-79
2023/04/01 16:12:19;;;;;;;0.28;0.28;;;;;;;12.67;76.38;100363.06;5079182;28;20084;-81
2023/04/01 16:15:12;;;;;;;0.10;0.10;;;;;;;12.67;76.50;100363.06;5090230;28;20043;-82
2023/04/01 16:23:40;;;;;;;0.38;0.38;;;;;;;12.66;76.30;100387.91;5089562;27;20393;-80
2023/04/01 16:26:23;;;;;;;0.60;0.60;;;;;;;12.62;76.36;100382.72;5069459;28;20025;-82
2023/04/01 16:29:06;;;;;;;0.10;0.10;;;;;;;12.58;76.18;100383.72;5065146;28;20020;-81
2023/04/01 16:31:56;;;;;;;0.20;0.20;;;;;;;12.53;76.01;100392.81;5066258;28;20052;-82
2023/04/01 16:34:47;;;;;;;0.13;0.13;;;;;;;12.62;76.26;100405.75;5073577;28;20033;-80
2023/04/01 16:37:21;;;;;;;4.63;0.82;;;;;;;12.58;76.74;100406.78;5086125;28;20032;-80
2023/04/01 16:40:16;;;;;;;0.40;0.40;;;;;;;12.60;76.55;100413.78;5078968;28;20029;-81
2023/04/01 16:46:12;;;;;;;0.10;0.10;;;;;;;12.59;75.95;100420.03;5065409;28;20426;-81
2023/04/01 16:49:02;;;;;;;0.10;0.10;;;;;;;12.56;75.79;100430.78;5054564;28;20063;-80
2023/04/01 16:51:41;;;;;;;0.70;0.47;;;;;;;12.46;75.94;100434.66;5053682;28;20052;-81